createdAt,value
2023-04-19T00:00:52.310Z,12.80
2023-04-19T00:03:24.828Z,12.93
2023-04-19T00:05:59.283Z,13.65
2023-04-19T00:08:29.494Z,12.50
2023-04-19T00:11:02.048Z,13.15
2023-04-19T00:13:31.948Z,13.43
2023-04-19T00:16:01.867Z,13.10
2023-04-19T00:18:31.781Z,12.18
2023-04-19T00:21:02.745Z,12.60
2023-04-19T00:23:32.617Z,13.63
2023-04-19T00:26:05.713Z,13.20
2023-04-19T00:28:36.758Z,14.00
2023-04-19T00:31:06.704Z,12.82
2023-04-19T00:33:36.887Z,13.27
2023-04-19T00:36:07.153Z,13.63
2023-04-19T00:38:36.988Z,12.93
2023-04-19T00:41:09.478Z,13.63
2023-04-19T00:43:39.308Z,14.23
2023-04-19T00:46:09.337Z,13.85
2023-04-19T00:48:39.460Z,14.15
2023-04-19T00:51:10.737Z,13.77
2023-04-19T00:53:41.318Z,13.88
2023-04-19T00:56:14.642Z,13.27
2023-04-19T00:58:45.108Z,13.90
2023-04-19T01:01:15.006Z,14.85
2023-04-19T01:03:45.019Z,13.75
2023-04-19T01:06:15.111Z,13.48
2023-04-19T01:08:45.046Z,13.52
2023-04-19T01:11:17.481Z,14.02
2023-04-19T01:13:47.288Z,15.13
2023-04-19T01:16:17.230Z,13.35
2023-04-19T01:18:47.330Z,13.93
2023-04-19T01:21:17.443Z,13.55
2023-04-19T01:23:49.917Z,14.40
2023-04-19T01:26:19.783Z,15.55
2023-04-19T01:28:49.690Z,14.10
2023-04-19T01:31:19.653Z,13.50
2023-04-19T01:33:49.505Z,13.88
2023-04-19T01:36:19.322Z,14.55
2023-04-19T01:38:52.844Z,15.15
2023-04-19T01:41:27.228Z,14.75
2023-04-19T01:46:26.962Z,14.63
2023-04-19T01:48:56.811Z,14.48
2023-04-19T01:51:26.777Z,13.27
2023-04-19T01:53:59.345Z,14.18
2023-04-19T01:56:29.211Z,13.52
2023-04-19T01:58:59.121Z,14.43
2023-04-19T02:01:28.994Z,13.50
2023-04-19T02:03:59.317Z,14.25
2023-04-19T02:06:29.625Z,14.38
2023-04-19T02:09:02.195Z,14.43
2023-04-19T02:11:32.175Z,14.45
2023-04-19T02:14:02.084Z,13.95
2023-04-19T02:16:33.860Z,15.35
2023-04-19T02:19:05.616Z,14.40
2023-04-19T02:21:35.512Z,13.48
2023-04-19T02:24:08.503Z,13.95
2023-04-19T02:26:38.358Z,14.20
2023-04-19T02:29:08.466Z,14.88
2023-04-19T02:31:39.531Z,13.73
2023-04-19T02:34:09.366Z,12.88
2023-04-19T02:36:39.273Z,13.63
2023-04-19T02:39:12.332Z,14.75
2023-04-19T02:41:42.323Z,14.13
2023-04-19T02:44:12.658Z,14.55
2023-04-19T02:46:42.466Z,14.75
2023-04-19T02:49:12.381Z,13.82
2023-04-19T02:51:42.268Z,14.98
2023-04-19T02:54:15.703Z,15.00
2023-04-19T02:56:45.747Z,14.50
2023-04-19T02:59:15.637Z,15.95
2023-04-19T03:01:45.484Z,15.38
2023-04-19T03:04:15.523Z,14.85
2023-04-19T03:06:45.648Z,15.43
2023-04-19T03:09:18.053Z,14.73
2023-04-19T03:11:47.875Z,15.48
2023-04-19T03:14:17.915Z,13.68
2023-04-19T03:16:47.879Z,14.95
2023-04-19T03:19:17.708Z,15.07
2023-04-19T03:21:48.425Z,14.40
2023-04-19T03:24:21.809Z,15.43
2023-04-19T03:26:51.752Z,15.82
2023-04-19T03:29:21.671Z,14.93
2023-04-19T03:31:51.872Z,15.50
2023-04-19T03:34:21.763Z,16.33
2023-04-19T03:36:51.670Z,14.32
2023-04-19T03:39:24.176Z,16.30
2023-04-19T03:41:54.081Z,14.50
2023-04-19T03:44:24.006Z,14.75
2023-04-19T03:46:53.849Z,14.73
2023-04-19T03:49:23.749Z,15.55
2023-04-19T03:51:53.636Z,15.35
2023-04-19T03:54:26.420Z,14.77
2023-04-19T03:56:57.219Z,14.45
2023-04-19T03:59:27.077Z,14.43
2023-04-19T04:01:56.975Z,14.27
2023-04-19T04:04:26.900Z,14.98
2023-04-19T04:06:57.124Z,14.38
2023-04-19T04:09:29.583Z,15.88
2023-04-19T04:11:59.499Z,14.95
2023-04-19T04:14:29.353Z,14.90
2023-04-19T04:16:59.192Z,14.82
2023-04-19T04:19:29.114Z,15.05
2023-04-19T04:21:59.014Z,14.02
2023-04-19T04:24:33.039Z,14.90
2023-04-19T04:27:03.340Z,15.07
2023-04-19T04:29:35.651Z,14.00
2023-04-19T04:32:06.274Z,13.35
2023-04-19T04:34:36.781Z,14.10
2023-04-19T04:37:07.501Z,15.25
2023-04-19T04:39:40.103Z,15.27
2023-04-19T04:42:10.655Z,14.65
2023-04-19T04:44:41.669Z,14.80
2023-04-19T04:47:11.497Z,14.90
2023-04-19T04:49:41.498Z,14.18
2023-04-19T04:52:11.540Z,14.48
2023-04-19T04:54:44.151Z,13.80
2023-04-19T04:57:14.026Z,13.60
2023-04-19T04:59:43.985Z,13.70
2023-04-19T05:02:13.963Z,14.13
2023-04-19T05:04:44.008Z,13.45
2023-04-19T05:07:13.899Z,13.48
2023-04-19T05:09:46.348Z,14.32
2023-04-19T05:12:16.168Z,13.98
2023-04-19T05:14:45.991Z,13.60
2023-04-19T05:17:15.830Z,13.13
2023-04-19T05:19:45.738Z,13.05
2023-04-19T05:22:15.877Z,12.88
2023-04-19T05:24:50.298Z,13.75
2023-04-19T05:27:20.207Z,13.40
2023-04-19T05:29:51.511Z,14.05
2023-04-19T05:32:21.494Z,14.07
2023-04-19T05:34:51.390Z,13.43
2023-04-19T05:37:21.246Z,13.63
2023-04-19T05:39:53.769Z,13.85
2023-04-19T05:42:23.632Z,13.40
2023-04-19T05:44:53.509Z,12.82
2023-04-19T05:47:23.416Z,12.95
2023-04-19T05:49:53.356Z,13.93
2023-04-19T05:52:23.296Z,13.10
2023-04-19T05:54:55.849Z,13.40
2023-04-19T05:57:26.045Z,12.15
2023-04-19T05:59:56.020Z,13.15
2023-04-19T06:02:26.085Z,13.13
2023-04-19T06:04:59.369Z,12.88
2023-04-19T06:10:11.841Z,12.45
2023-04-19T06:12:41.742Z,11.82
2023-04-19T06:15:12.883Z,12.90
2023-04-19T06:17:42.872Z,12.05
2023-04-19T06:20:14.332Z,11.73
2023-04-19T06:22:48.149Z,12.90
2023-04-19T06:25:20.873Z,12.00
2023-04-19T06:27:52.262Z,12.10
2023-04-19T06:30:22.393Z,11.50
2023-04-19T06:32:52.765Z,11.88
2023-04-19T06:35:22.763Z,12.75
2023-04-19T06:37:52.629Z,12.85
2023-04-19T06:40:25.297Z,12.15
2023-04-19T06:42:56.097Z,13.13
2023-04-19T06:45:26.277Z,12.32
2023-04-19T06:47:56.601Z,12.18
2023-04-19T06:50:27.136Z,12.15
2023-04-19T06:52:57.074Z,11.95
2023-04-19T06:55:29.927Z,12.30
2023-04-19T06:57:59.739Z,11.80
2023-04-19T07:00:29.953Z,12.88
2023-04-19T07:03:00.729Z,11.20
2023-04-19T07:05:30.965Z,11.68
2023-04-19T07:08:01.158Z,11.02
2023-04-19T07:10:33.574Z,11.43
2023-04-19T07:13:03.417Z,11.50
2023-04-19T07:15:33.481Z,12.32
2023-04-19T07:18:03.482Z,12.43
2023-04-19T07:20:33.821Z,11.43
2023-04-19T07:23:03.758Z,11.20
2023-04-19T07:25:36.202Z,11.73
2023-04-19T07:28:06.361Z,12.07
2023-04-19T07:30:36.241Z,11.55
2023-04-19T07:33:08.755Z,11.98
2023-04-19T07:35:41.450Z,10.70
2023-04-19T07:38:11.281Z,11.02
2023-04-19T07:40:43.788Z,10.45
2023-04-19T07:43:13.836Z,10.77
2023-04-19T07:45:43.713Z,11.35
2023-04-19T07:48:13.523Z,10.30
2023-04-19T07:50:43.469Z,9.63
2023-04-19T07:53:13.317Z,10.55
2023-04-19T07:55:45.902Z,10.45
2023-04-19T07:58:15.797Z,10.63
2023-04-19T08:00:45.755Z,10.80
2023-04-19T08:03:15.787Z,10.32
2023-04-19T08:05:48.129Z,10.25
2023-04-19T08:08:18.092Z,10.20
2023-04-19T08:10:50.537Z,10.57
2023-04-19T08:13:20.409Z,11.23
2023-04-19T08:16:24.535Z,10.90
2023-04-19T08:18:40.155Z,10.48
2023-04-19T08:21:10.072Z,11.52
2023-04-19T08:23:48.058Z,10.77
2023-04-19T08:26:21.117Z,10.45
2023-04-19T08:28:51.458Z,11.05
2023-04-19T08:31:22.289Z,10.43
2023-04-19T08:33:52.228Z,10.20
2023-04-19T08:36:35.391Z,11.18
2023-04-19T08:39:24.872Z,11.60
2023-04-19T08:42:13.459Z,10.38
2023-04-19T08:45:13.704Z,10.65
2023-04-19T08:47:59.717Z,11.13
2023-04-19T08:50:36.083Z,11.03
2023-04-19T08:56:03.312Z,10.27
2023-04-19T08:58:57.122Z,11.50
2023-04-19T09:01:35.363Z,10.65
2023-04-19T09:06:42.594Z,10.30
2023-04-19T09:09:33.928Z,11.00
2023-04-19T09:12:17.977Z,10.37
2023-04-19T09:15:01.339Z,10.93
2023-04-19T09:17:32.484Z,10.05
2023-04-19T09:20:02.547Z,10.98
2023-04-19T09:22:32.479Z,10.48
2023-04-19T09:25:35.408Z,9.77
2023-04-19T09:27:52.753Z,9.18
2023-04-19T09:30:33.824Z,10.13
2023-04-19T09:33:08.604Z,8.93
2023-04-19T09:35:46.130Z,9.13
2023-04-19T09:38:16.102Z,8.77
2023-04-19T09:40:47.833Z,9.18
2023-04-19T09:43:58.159Z,8.50
2023-04-19T09:46:35.737Z,9.30
2023-04-19T09:49:33.670Z,9.25
2023-04-19T09:52:17.054Z,9.43
2023-04-19T09:54:49.009Z,8.70
2023-04-19T09:57:19.808Z,9.15
2023-04-19T09:59:49.638Z,10.93
2023-04-19T10:02:23.615Z,9.90
2023-04-19T10:05:15.663Z,8.95
2023-04-19T10:07:45.562Z,10.27
2023-04-19T10:10:20.860Z,10.50
2023-04-19T10:15:39.813Z,9.18
2023-04-19T10:18:22.906Z,9.50
2023-04-19T10:20:58.049Z,9.68
2023-04-19T10:23:28.212Z,9.27
2023-04-19T10:25:59.842Z,9.05
2023-04-19T10:28:31.909Z,9.18
2023-04-19T10:31:03.878Z,9.80
2023-04-19T10:33:39.166Z,9.23
2023-04-19T10:36:12.626Z,7.70
2023-04-19T10:38:47.263Z,9.00
2023-04-19T10:41:18.904Z,9.48
2023-04-19T10:43:50.697Z,8.32
2023-04-19T10:46:40.946Z,9.63
2023-04-19T10:49:13.758Z,8.50
2023-04-19T10:51:51.219Z,10.75
2023-04-19T10:54:34.545Z,10.00
2023-04-19T10:57:06.103Z,9.85
2023-04-19T10:59:37.107Z,10.13
2023-04-19T11:02:08.457Z,9.75
2023-04-19T11:05:06.085Z,10.30
2023-04-19T11:07:43.792Z,10.60
2023-04-19T11:10:14.279Z,10.45
2023-04-19T11:12:47.812Z,10.73
2023-04-19T11:15:17.757Z,11.57
2023-04-19T11:17:48.465Z,11.73
2023-04-19T11:20:26.644Z,11.77
2023-04-19T11:23:00.990Z,12.05
2023-04-19T11:25:34.110Z,14.00
2023-04-19T11:28:04.006Z,12.75
2023-04-19T11:30:34.178Z,13.90
2023-04-19T11:33:04.203Z,13.80
2023-04-19T11:35:37.324Z,14.15
2023-04-19T11:38:07.530Z,14.63
2023-04-19T11:40:37.728Z,13.75
2023-04-19T11:43:07.988Z,14.55
2023-04-19T11:45:40.351Z,15.73
2023-04-19T11:48:16.462Z,15.63
2023-04-19T11:50:50.181Z,15.82
2023-04-19T11:53:21.717Z,16.27
2023-04-19T11:55:53.836Z,15.50
2023-04-19T11:58:36.407Z,16.58
2023-04-19T12:01:08.963Z,15.45
2023-04-19T12:03:44.018Z,15.02
2023-04-19T12:06:19.919Z,15.43
2023-04-19T12:08:51.472Z,16.10
2023-04-19T12:11:23.138Z,15.98
2023-04-19T12:14:11.595Z,15.13
2023-04-19T12:16:41.634Z,14.93
2023-04-19T12:19:16.287Z,15.38
2023-04-19T12:21:49.728Z,15.70
2023-04-19T12:24:20.447Z,15.60
2023-04-19T12:26:59.061Z,15.13
2023-04-19T12:29:30.379Z,14.45
2023-04-19T12:32:00.254Z,14.73
2023-04-19T12:34:30.910Z,13.75
2023-04-19T12:37:04.310Z,12.98
2023-04-19T12:39:34.189Z,13.52
2023-04-19T12:42:04.216Z,13.65
2023-04-19T12:44:34.202Z,13.82
2023-04-19T12:47:04.074Z,14.55
2023-04-19T12:49:34.272Z,15.07
2023-04-19T12:52:08.385Z,13.75
2023-04-19T12:54:38.190Z,14.15
2023-04-19T12:57:08.138Z,13.93
2023-04-19T12:59:37.995Z,14.13
2023-04-19T13:02:09.086Z,13.55
2023-04-19T13:04:39.187Z,12.48
2023-04-19T13:07:11.903Z,14.05
2023-04-19T13:09:41.761Z,13.13
2023-04-19T13:12:12.389Z,14.60
2023-04-19T13:14:42.248Z,13.13
2023-04-19T13:17:12.109Z,14.32
2023-04-19T13:19:42.200Z,11.98
2023-04-19T13:22:14.699Z,13.35
2023-04-19T13:24:44.604Z,12.63
2023-04-19T13:27:14.599Z,11.88
2023-04-19T13:29:44.559Z,13.07
2023-04-19T13:32:14.959Z,11.68
2023-04-19T13:34:44.928Z,11.73
2023-04-19T13:37:17.746Z,11.77
2023-04-19T13:39:48.033Z,10.48
2023-04-19T13:42:17.865Z,10.63
2023-04-19T13:44:49.433Z,10.43
2023-04-19T13:47:20.512Z,10.75
2023-04-19T13:49:52.380Z,10.45
2023-04-19T13:52:25.130Z,9.63
2023-04-19T13:54:55.041Z,10.50
2023-04-19T13:57:24.904Z,10.68
2023-04-19T13:59:54.775Z,10.30
2023-04-19T14:02:24.823Z,8.88
2023-04-19T14:04:54.758Z,9.00
2023-04-19T14:07:27.273Z,9.02
2023-04-19T14:09:57.149Z,9.40
2023-04-19T14:12:27.209Z,8.90
2023-04-19T14:14:57.004Z,8.10
2023-04-19T14:17:26.923Z,8.57
2023-04-19T14:19:56.798Z,8.98
2023-04-19T14:22:29.245Z,8.88
2023-04-19T14:24:59.129Z,8.30
2023-04-19T14:27:29.052Z,8.55
2023-04-19T14:29:58.915Z,8.10
2023-04-19T14:32:29.051Z,7.85
2023-04-19T14:34:58.931Z,8.18
2023-04-19T14:37:31.932Z,8.38
2023-04-19T14:40:01.811Z,7.85
2023-04-19T14:42:31.760Z,7.93
2023-04-19T14:45:02.138Z,7.90
2023-04-19T14:47:32.189Z,8.40
2023-04-19T14:50:02.278Z,9.02
2023-04-19T14:52:34.909Z,8.63
2023-04-19T14:55:04.807Z,9.07
2023-04-19T14:57:34.695Z,9.88
2023-04-19T15:00:05.214Z,9.68
2023-04-19T15:02:37.661Z,9.43
2023-04-19T15:05:08.983Z,10.68
2023-04-19T15:07:41.688Z,9.40
2023-04-19T15:10:12.649Z,10.05
2023-04-19T15:12:42.562Z,9.00
2023-04-19T15:15:13.327Z,8.73
2023-04-19T15:17:43.519Z,9.27
2023-04-19T15:20:14.045Z,9.20
2023-04-19T15:22:46.455Z,9.55
2023-04-19T15:25:16.404Z,9.40
2023-04-19T15:27:46.397Z,8.65
2023-04-19T15:30:16.738Z,7.63
2023-04-19T15:32:47.095Z,7.90
2023-04-19T15:35:16.974Z,7.88
2023-04-19T15:37:50.205Z,8.02
2023-04-19T15:40:20.420Z,7.95
2023-04-19T15:42:50.290Z,7.85
2023-04-19T15:45:20.280Z,9.35
2023-04-19T15:47:50.170Z,8.88
2023-04-19T15:50:20.008Z,7.93
2023-04-19T15:52:52.510Z,7.70
2023-04-19T15:55:22.371Z,6.32
2023-04-19T15:57:52.456Z,5.35
2023-04-19T16:00:23.970Z,6.22
2023-04-19T16:02:53.939Z,6.38
2023-04-19T16:05:23.993Z,5.32
2023-04-19T16:08:07.168Z,5.00
2023-04-19T16:10:37.579Z,4.20
2023-04-19T16:13:07.713Z,4.20
2023-04-19T16:15:37.578Z,3.58
2023-04-19T16:18:07.763Z,2.58
2023-04-19T16:20:37.906Z,1.50
2023-04-19T16:23:10.431Z,1.70
2023-04-19T16:25:41.445Z,1.77
2023-04-19T16:28:11.392Z,1.85
2023-04-19T16:30:41.347Z,1.90
2023-04-19T16:33:11.550Z,1.90
2023-04-19T16:35:41.533Z,2.47
2023-04-19T16:38:13.961Z,1.65
2023-04-19T16:40:46.244Z,1.75
2023-04-19T16:43:16.123Z,1.40
2023-04-19T16:45:45.994Z,1.40
2023-04-19T16:48:15.971Z,1.50
2023-04-19T16:50:46.401Z,1.65
2023-04-19T16:53:18.891Z,1.33
2023-04-19T16:55:48.762Z,2.00
2023-04-19T16:58:18.729Z,1.25
2023-04-19T17:00:48.813Z,1.63
2023-04-19T17:03:18.950Z,1.40
2023-04-19T17:05:48.904Z,1.10
2023-04-19T17:08:22.351Z,1.40
2023-04-19T17:10:52.195Z,1.30
2023-04-19T17:13:22.235Z,1.30
2023-04-19T17:15:52.065Z,1.63
2023-04-19T17:18:22.321Z,1.38
2023-04-19T17:20:52.151Z,1.70
2023-04-19T17:23:24.625Z,1.20
2023-04-19T17:25:54.478Z,1.60
2023-04-19T17:28:24.389Z,1.60
2023-04-19T17:30:54.242Z,1.30
2023-04-19T17:33:24.070Z,1.70
2023-04-19T17:35:54.042Z,1.40
2023-04-19T17:38:26.498Z,2.13
2023-04-19T17:40:57.261Z,1.30
2023-04-19T17:43:27.478Z,1.70
2023-04-19T17:45:58.104Z,1.52
2023-04-19T17:48:28.010Z,1.50
2023-04-19T17:50:57.883Z,1.67
2023-04-19T17:53:30.321Z,1.60
2023-04-19T17:56:00.505Z,1.92
2023-04-19T17:58:30.405Z,1.50
2023-04-19T18:01:00.826Z,1.90
2023-04-19T18:03:31.071Z,1.92
2023-04-19T18:06:01.496Z,1.98
2023-04-19T18:08:34.067Z,2.13
2023-04-19T18:11:03.987Z,2.50
2023-04-19T18:13:33.979Z,2.30
2023-04-19T18:16:05.178Z,2.40
2023-04-19T18:18:35.205Z,2.17
2023-04-19T18:21:08.378Z,1.85
2023-04-19T18:23:40.856Z,2.38
2023-04-19T18:26:10.864Z,2.40
2023-04-19T18:28:40.791Z,2.35
2023-04-19T18:31:10.881Z,2.15
2023-04-19T18:33:40.753Z,2.53
2023-04-19T18:36:11.188Z,2.20
2023-04-19T18:38:43.587Z,2.10
2023-04-19T18:41:13.413Z,2.10
2023-04-19T18:43:59.523Z,2.00
2023-04-19T18:46:33.189Z,3.17
2023-04-19T18:49:03.162Z,3.08
2023-04-19T18:51:33.132Z,2.38
2023-04-19T18:54:05.761Z,2.70
2023-04-19T18:59:08.445Z,2.50
2023-04-19T19:01:38.352Z,2.78
2023-04-19T19:04:31.778Z,2.70
2023-04-19T19:07:05.267Z,2.97
2023-04-19T19:09:55.101Z,5.10
2023-04-19T19:12:25.928Z,3.47
2023-04-19T19:14:56.144Z,5.20
2023-04-19T19:17:28.318Z,4.63
2023-04-19T19:19:58.321Z,4.75
2023-04-19T19:22:29.187Z,4.63
2023-04-19T19:25:01.843Z,4.22
2023-04-19T19:27:31.653Z,2.83
2023-04-19T19:30:01.681Z,2.67
2023-04-19T19:32:32.462Z,2.55
2023-04-19T19:35:06.258Z,2.83
2023-04-19T19:37:38.301Z,2.60
2023-04-19T19:40:12.099Z,2.70
2023-04-19T19:42:42.119Z,2.25
2023-04-19T19:45:13.385Z,2.63
2023-04-19T19:47:45.670Z,2.42
2023-04-19T19:52:49.052Z,3.47
2023-04-19T19:55:21.480Z,2.60
2023-04-19T20:00:44.088Z,2.92
2023-04-19T20:03:28.512Z,2.90
2023-04-19T20:06:25.768Z,3.35
2023-04-19T20:08:53.225Z,3.13
2023-04-19T20:11:25.987Z,3.97
2023-04-19T20:13:55.886Z,5.15
2023-04-19T20:16:25.824Z,4.20
2023-04-19T20:18:57.869Z,3.72
2023-04-19T20:21:28.179Z,3.75
2023-04-19T20:23:58.076Z,3.63
2023-04-19T20:26:30.602Z,3.80
2023-04-19T20:29:00.588Z,4.10
2023-04-19T20:31:30.828Z,4.00
2023-04-19T20:34:00.760Z,3.05
2023-04-19T20:36:31.963Z,3.92
2023-04-19T20:39:06.566Z,3.97
2023-04-19T20:41:39.198Z,3.95
2023-04-19T20:44:09.106Z,4.25
2023-04-19T20:46:38.980Z,4.00
2023-04-19T20:49:08.946Z,4.25
2023-04-19T20:51:38.855Z,3.88
2023-04-19T20:54:08.766Z,3.53
2023-04-19T20:56:41.230Z,3.13
2023-04-19T20:59:11.088Z,3.60
2023-04-19T21:01:41.640Z,3.55
2023-04-19T21:04:11.674Z,3.38
2023-04-19T21:06:41.791Z,3.92
2023-04-19T21:09:11.666Z,3.38
2023-04-19T21:11:44.104Z,2.70
2023-04-19T21:14:13.961Z,3.03
2023-04-19T21:16:44.037Z,2.58
2023-04-19T21:19:13.906Z,2.80
2023-04-19T21:21:43.803Z,2.80
2023-04-19T21:24:13.617Z,2.70
2023-04-19T21:26:46.049Z,3.05
2023-04-19T21:29:16.333Z,3.40
2023-04-19T21:31:46.361Z,3.17
2023-04-19T21:34:16.867Z,3.08
2023-04-19T21:36:46.832Z,3.80
2023-04-19T21:39:16.846Z,4.00
2023-04-19T21:41:49.410Z,4.18
2023-04-19T21:44:19.471Z,3.80
2023-04-19T21:46:49.376Z,4.10
2023-04-19T21:49:19.268Z,4.10
2023-04-19T21:51:49.100Z,4.00
2023-04-19T21:54:30.686Z,3.78
2023-04-19T21:57:05.878Z,5.22
2023-04-19T21:59:38.031Z,4.05
2023-04-19T22:02:07.965Z,4.05
2023-04-19T22:04:39.670Z,4.10
2023-04-19T22:07:11.474Z,4.07
2023-04-19T22:09:41.743Z,4.15
2023-04-19T22:12:14.438Z,4.10
2023-04-19T22:14:44.300Z,4.20
2023-04-19T22:17:14.391Z,4.03
2023-04-19T22:19:44.228Z,3.95
2023-04-19T22:22:14.187Z,4.35
2023-04-19T22:24:56.101Z,3.97
2023-04-19T22:27:30.166Z,4.50
2023-04-19T22:30:00.041Z,5.03
2023-04-19T22:32:29.902Z,4.13
2023-04-19T22:34:59.747Z,4.68
2023-04-19T22:37:32.101Z,4.70
2023-04-19T22:40:01.980Z,4.70
2023-04-19T22:42:34.427Z,5.10
2023-04-19T22:45:04.289Z,5.32
2023-04-19T22:47:34.306Z,5.45
2023-04-19T22:50:04.206Z,4.82
2023-04-19T22:52:34.924Z,5.55
2023-04-19T22:55:05.183Z,5.45
2023-04-19T22:57:37.598Z,4.68
2023-04-19T23:00:09.065Z,5.15
2023-04-19T23:02:39.101Z,5.07
2023-04-19T23:05:10.234Z,4.65
2023-04-19T23:07:45.234Z,4.60
2023-04-19T23:10:16.260Z,4.55
2023-04-19T23:12:49.613Z,4.95
2023-04-19T23:15:19.521Z,4.78
2023-04-19T23:17:49.458Z,4.57
2023-04-19T23:20:19.504Z,4.55
2023-04-19T23:22:49.376Z,4.97
2023-04-19T23:25:19.251Z,5.05
2023-04-19T23:27:51.999Z,4.88
2023-04-19T23:30:22.590Z,4.70
2023-04-19T23:32:52.419Z,4.97
2023-04-19T23:35:22.294Z,4.65
2023-04-19T23:37:55.782Z,4.90
2023-04-19T23:40:25.687Z,4.55
2023-04-19T23:42:58.126Z,4.03
2023-04-19T23:45:28.225Z,4.72
2023-04-19T23:47:58.115Z,4.28
2023-04-19T23:50:28.282Z,4.32
2023-04-19T23:52:58.286Z,4.70
2023-04-19T23:55:28.121Z,4.72
2023-04-19T23:58:00.574Z,4.15
